Lattingtown, New York
Current Conditions -  °F | °C
As of 5:53 PM on Friday 19 Dec 2014 (Local Time) from KFRG Reporting Station
Overcast Overcast  
Wind Chill: 28°   Ceiling: 3700
Heat Index: 35°   Visibility: 10mi
Dew Point: 21°   Wind: 9mph
Humidity: 57%   Direction: 330°NNW
Pressure: 30.1"   Gusts: NA
Location:  40.8809°N, 73.5895°W
Report Text: KFRG 192253Z 33008KT 10SM OVC037 02/M06 A3010 RMK AO2 SLP192 T00171061
Loading
Personal Weather Stations






























Interactive Weather Map New forecast layout! Learn more

10-Day Weather Forecast

Advertisements
Track Severe Weather on mobile